Latest Coastal Weather Observations for Rosslyn Bay Harbour

IDQ60701

Issued at 9:21 am EST Sunday 30 April 2017 (issued every 10 minutes, with the page automatically refreshed every 10 minutes)

About coastal observations | Map of coastal stations | Coastal observations for QLD | Marine services | Other Formats
Station Details ID: 033208 Name: ROSSLYN BAY NTC AWS Lat: -23.16 Lon: 150.79 Height: 0.0 m
Data from the previous 72 hours. | See also: Recent months for locations in Queensland
Date/Time
EST
Temp
°C
Wind Pressure Rain since
9am
mm
Weather Cloud Vis
km
Sea
Height
m
Swell
Dir  Spd
kts
Gust
kts
hPa Trend Height
m
Period
s
Dir
30/09:00am 21.7 S 5 11 1019.0 - - - - - - - - -
30/08:30am 20.8 S 5 13 1018.8 - - - - - - - - -
30/08:00am 20.0 SSW 5 9 1018.8 - - - - - - - - -
30/07:30am 19.3 SSW 4 9 1018.6 - - - - - - - - -
30/07:00am 18.7 SSW 3 6 1018.5 - - - - - - - - -
30/06:30am 18.3 SSW 4 8 1018.0 - - - - - - - - -
30/06:00am 18.3 SSW 4 7 1017.6 - - - - - - - - -
30/05:30am 18.4 SSW 3 5 1017.2 - - - - - - - - -
30/05:00am 18.7 SSW 2 4 1017.1 - - - - - - - - -
30/04:30am 19.4 SSW 2 5 1016.9 - - - - - - - - -
30/04:00am 19.4 SSW 2 6 1016.8 - - - - - - - - -
30/03:30am 19.2 SSW 3 5 1016.8 - - - - - - - - -
30/03:00am 19.4 SSW 3 6 1016.7 - - - - - - - - -
30/02:30am 19.6 SSW 2 4 1016.7 - - - - - - - - -
30/02:00am 19.9 SSW 3 7 1016.9 - - - - - - - - -
30/01:30am 20.0 SSW 3 5 1016.8 - - - - - - - - -
30/01:00am 20.3 S 2 4 1016.9 - - - - - - - - -
30/12:30am 20.5 SSW 3 6 1017.1 - - - - - - - - -
30/12:00am 20.7 SSW 2 5 1017.2 - - - - - - - - -
 
Date/Time
EST
Temp
°C
Wind Pressure Rain since
9am
mm
Weather Cloud Vis
km
Sea
Height
m
Swell
Dir  Spd
kts
Gust
kts
hPa Trend Height
m
Period
s
Dir
29/11:30pm 21.1 SSW 3 5 1017.2 - - - - - - - - -
29/11:00pm 22.1 SSW 6 12 1017.3 - - - - - - - - -
29/10:30pm 23.7 S 7 11 1017.5 - - - - - - - - -
29/10:00pm 23.7 S 7 11 1017.5 - - - - - - - - -
29/09:30pm 23.7 S 6 11 1017.5 - - - - - - - - -
29/09:00pm 23.6 S 6 10 1017.5 - - - - - - - - -
29/08:30pm 23.5 S 4 8 1017.3 - - - - - - - - -
29/08:00pm 23.4 S 5 9 1017.1 - - - - - - - - -
29/07:30pm 23.4 SSW 3 7 1016.8 - - - - - - - - -
29/07:00pm 23.4 S 4 11 1016.5 - - - - - - - - -
29/06:30pm 23.5 S 5 9 1016.3 - - - - - - - - -
29/06:00pm 23.6 S 8 14 1016.0 - - - - - - - - -
29/05:30pm 23.6 S 7 12 1016.1 - - - - - - - - -
29/05:00pm 23.7 S 6 13 1015.8 - - - - - - - - -
29/04:30pm 23.9 S 4 9 1015.6 - - - - - - - - -
29/04:00pm 23.9 S 6 11 1015.9 - - - - - - - - -
29/03:30pm 23.6 S 5 9 1015.8 - - - - - - - - -
29/03:00pm 23.2 S 6 9 1015.9 - - - - - - - - -
29/02:30pm 23.3 S 6 10 1016.0 - - - - - - - - -
29/02:00pm 23.1 S 6 9 1016.2 - - - - - - - - -
29/01:30pm 22.9 S 7 11 1016.5 - - - - - - - - -
29/01:00pm 22.6 S 4 8 1016.8 - - - - - - - - -
29/12:30pm 22.2 S 5 8 1017.3 - - - - - - - - -
29/12:00pm 22.0 SSE 6 9 1017.5 - - - - - - - - -
29/11:30am 21.5 S 5 10 1017.8 - - - - - - - - -
29/11:00am 21.0 S 5 9 1018.0 - - - - - - - - -
29/10:30am 20.8 S 6 13 1018.3 - - - - - - - - -
29/10:00am 20.7 S 8 14 1018.3 - - - - - - - - -
29/09:30am 20.9 S 7 13 1018.2 - - - - - - - - -
29/09:00am 20.6 S 6 12 1018.1 - - - - - - - - -
29/08:30am 19.6 SSW 6 11 1018.0 - - - - - - - - -
29/08:00am 18.8 SSW 6 10 1017.5 - - - - - - - - -
29/07:30am 17.7 SSW 5 8 1017.4 - - - - - - - - -
29/07:00am 16.9 SSW 5 7 1017.3 - - - - - - - - -
29/06:30am 15.8 CALM 0 2 1016.8 - - - - - - - - -
29/06:00am 14.4 W 2 3 1016.6 - - - - - - - - -
29/05:30am 14.5 W 1 3 1016.3 - - - - - - - - -
29/05:00am 15.1 WSW 2 5 1016.0 - - - - - - - - -
29/04:30am 15.0 W 4 7 1015.7 - - - - - - - - -
29/04:00am 14.6 W 5 7 1015.8 - - - - - - - - -
29/03:30am 15.6 W 4 7 1015.8 - - - - - - - - -
29/03:00am 16.1 SW 5 7 1015.8 - - - - - - - - -
29/02:30am 14.8 WSW 5 8 1015.8 - - - - - - - - -
29/02:00am 16.4 W 4 6 1015.9 - - - - - - - - -
29/01:30am 15.8 WSW 3 5 1016.2 - - - - - - - - -
29/01:00am 16.1 W 4 5 1016.4 - - - - - - - - -
29/12:30am 17.9 SSW 4 6 1016.4 - - - - - - - - -
29/12:00am 16.4 SW 2 4 1016.7 - - - - - - - - -
 
Date/Time
EST
Temp
°C
Wind Pressure Rain since
9am
mm
Weather Cloud Vis
km
Sea
Height
m
Swell
Dir  Spd
kts
Gust
kts
hPa Trend Height
m
Period
s
Dir
28/11:30pm 17.6 S 3 4 1016.8 - - - - - - - - -
28/11:00pm 18.3 S 4 6 1017.0 - - - - - - - - -
28/10:30pm 18.4 S 4 6 1017.1 - - - - - - - - -
28/10:00pm 18.6 SSW 5 7 1017.2 - - - - - - - - -
28/09:30pm 19.2 S 5 6 1017.2 - - - - - - - - -
28/09:00pm 19.3 WSW 2 4 1017.2 - - - - - - - - -
28/08:30pm 18.4 WNW 3 4 1017.0 - - - - - - - - -
28/08:00pm 19.5 CALM 0 1 1016.9 - - - - - - - - -
28/07:30pm 20.4 S 1 2 1016.5 - - - - - - - - -
28/07:00pm 20.9 S 1 5 1016.2 - - - - - - - - -
28/06:30pm 21.2 SSW 1 4 1015.9 - - - - - - - - -
28/06:00pm 21.1 S 3 7 1015.7 - - - - - - - - -
28/05:30pm 21.2 SSW 3 4 1015.2 - - - - - - - - -
28/05:00pm 21.7 SW 4 6 1015.0 - - - - - - - - -
28/04:30pm 22.0 SSW 5 9 1014.5 - - - - - - - - -
28/04:00pm 21.9 S 5 8 1014.3 - - - - - - - - -
28/03:30pm 21.9 SSW 5 11 1014.3 - - - - - - - - -
28/03:00pm 21.7 S 6 11 1014.2 - - - - - - - - -
28/02:30pm 21.4 SSW 5 9 1014.1 - - - - - - - - -
28/02:00pm 21.1 SSW 5 11 1014.1 - - - - - - - - -
28/01:30pm 21.0 S 6 10 1014.3 - - - - - - - - -
28/01:00pm 20.4 S 7 12 1014.8 - - - - - - - - -
28/12:30pm 20.3 SSW 8 13 1015.1 - - - - - - - - -
28/12:00pm 19.9 SSW 7 12 1015.7 - - - - - - - - -
28/11:30am 19.2 SSW 7 12 1016.3 - - - - - - - - -
28/11:00am 19.0 SSW 8 17 1016.8 - - - - - - - - -
28/10:30am 18.1 SSW 11 17 1017.2 - - - - - - - - -
28/10:00am 17.7 SSW 10 15 1017.6 - - - - - - - - -
28/09:30am 17.6 SSW 11 17 1017.7 - - - - - - - - -
28/09:00am 16.6 SSW 11 17 1017.8 - - - - - - - - -
28/08:30am 16.0 SSW 9 15 1017.7 - - - - - - - - -
28/08:00am 15.2 SSW 12 19 1017.3 - - - - - - - - -
28/07:30am 14.7 SSW 14 20 1016.7 - - - - - - - - -
28/07:00am 13.9 SSW 8 12 1016.7 - - - - - - - - -
28/06:30am 13.9 SW 7 11 1016.7 - - - - - - - - -
28/06:00am 13.4 SSW 5 8 1016.5 - - - - - - - - -
28/05:30am 14.0 SW 8 11 1016.2 - - - - - - - - -
28/05:00am 13.8 SSW 5 8 1016.0 - - - - - - - - -
28/04:30am 13.8 SSW 4 7 1015.9 - - - - - - - - -
28/04:00am 14.6 SSW 7 11 1015.9 - - - - - - - - -
28/03:30am 14.8 SSW 6 11 1016.0 - - - - - - - - -
28/03:00am 15.0 SSW 5 8 1016.2 - - - - - - - - -
28/02:30am 15.1 SSW 4 7 1016.5 - - - - - - - - -
28/02:00am 15.4 SSW 7 10 1016.6 - - - - - - - - -
28/01:30am 15.7 S 5 9 1016.6 - - - - - - - - -
28/01:00am 16.3 SSW 7 10 1016.3 - - - - - - - - -
28/12:30am 16.5 S 4 7 1016.2 - - - - - - - - -
28/12:00am 16.8 S 5 8 1016.1 - - - - - - - - -
 
Date/Time
EST
Temp
°C
Wind Pressure Rain since
9am
mm
Weather Cloud Vis
km
Sea
Height
m
Swell
Dir  Spd
kts
Gust
kts
hPa Trend Height
m
Period
s
Dir
27/11:30pm 17.2 SSW 6 9 1016.0 - - - - - - - - -
27/11:00pm 17.6 S 5 7 1016.0 - - - - - - - - -
27/10:30pm 18.0 SSW 7 9 1016.0 - - - - - - - - -
27/10:00pm 18.2 SSW 5 7 1016.0 - - - - - - - - -
27/09:30pm 18.4 SSW 5 7 1015.9 - - - - - - - - -
27/09:00pm 19.1 SSW 4 6 1015.7 - - - - - - - - -
27/08:30pm 19.0 SSW 4 6 1015.7 - - - - - - - - -
27/08:00pm 19.2 SSW 5 7 1015.2 - - - - - - - - -
27/07:30pm 20.3 SSW 4 5 1014.8 - - - - - - - - -
27/07:00pm 21.1 SSW 3 6 1014.3 - - - - - - - - -
27/06:30pm 21.5 SSW 6 8 1014.0 - - - - - - - - -
27/06:00pm 21.7 SSW 6 9 1013.6 - - - - - - - - -
27/05:30pm 22.2 SSW 5 8 1013.2 - - - - - - - - -
27/05:00pm 22.9 SSW 5 9 1012.7 - - - - - - - - -
27/04:30pm 23.1 SSW 7 11 1012.3 - - - - - - - - -
27/04:00pm 23.1 SSW 8 12 1012.1 - - - - - - - - -
27/03:30pm 23.2 SSW 7 13 1012.0 - - - - - - - - -
27/03:00pm 23.5 SSW 8 12 1012.1 - - - - - - - - -
27/02:30pm 23.5 S 5 10 1012.1 - - - - - - - - -
27/02:00pm 23.6 SSW 5 10 1012.0 - - - - - - - - -
27/01:30pm 23.5 S 4 9 1012.1 - - - - - - - - -
27/01:00pm 23.3 S 5 11 1012.4 - - - - - - - - -
27/12:30pm 23.4 S 6 9 1012.5 - - - - - - - - -
27/12:00pm 23.5 S 7 12 1012.9 - - - - - - - - -
27/11:30am 23.5 S 6 11 1013.4 - - - - - - - - -
27/11:00am 23.3 S 6 11 1014.0 - - - - - - - - -
27/10:30am 23.6 SSW 6 10 1014.1 - - - - - - - - -
27/10:00am 23.6 SSW 5 8 1014.3 - - - - - - - - -
27/09:30am 23.5 SSW 6 10 1014.2 - - - - - - - - -

Other Formats:

Comma delimited format used in spreadsheet applications
http://www.bom.gov.au/fwo/IDQ60701/IDQ60701.95298.axf

JavaScript Object Notation format (JSON) in row-major order
http://www.bom.gov.au/fwo/IDQ60701/IDQ60701.95298.json